createdAt,value
2018-07-19T00:02:07.328Z,10.70
2018-07-19T00:04:35.151Z,10.90
2018-07-19T00:07:03.218Z,9.70
2018-07-19T00:09:30.943Z,10.30
2018-07-19T00:11:58.829Z,9.70
2018-07-19T00:14:26.929Z,10.03
2018-07-19T00:16:54.776Z,9.33
2018-07-19T00:19:23.939Z,8.90
2018-07-19T00:21:52.675Z,9.27
2018-07-19T00:24:21.193Z,9.23
2018-07-19T00:26:49.068Z,9.50
2018-07-19T00:29:17.095Z,9.63
2018-07-19T00:31:45.441Z,10.30
2018-07-19T00:34:13.279Z,9.47
2018-07-19T00:36:41.413Z,8.90
2018-07-19T00:39:09.785Z,10.67
2018-07-19T00:41:37.571Z,9.20
2018-07-19T00:44:05.631Z,8.93
2018-07-19T00:46:34.541Z,8.30
2018-07-19T00:49:02.392Z,9.77
2018-07-19T00:51:30.857Z,9.27
2018-07-19T00:53:58.572Z,9.33
2018-07-19T00:56:26.402Z,9.27
2018-07-19T00:58:54.468Z,9.40
2018-07-19T01:01:22.163Z,8.83
2018-07-19T01:03:50.093Z,8.70
2018-07-19T01:06:18.060Z,9.70
2018-07-19T01:08:45.896Z,7.73
2018-07-19T01:11:13.753Z,8.83
2018-07-19T01:13:43.099Z,8.67
2018-07-19T01:16:11.490Z,10.00
2018-07-19T01:18:39.187Z,9.87
2018-07-19T01:21:08.243Z,9.10
2018-07-19T01:23:36.692Z,9.00
2018-07-19T01:26:04.698Z,10.13
2018-07-19T01:28:33.569Z,9.93
2018-07-19T01:31:01.744Z,9.83
2018-07-19T01:33:32.093Z,9.83
2018-07-19T01:36:00.353Z,10.83
2018-07-19T01:38:28.069Z,11.07
2018-07-19T01:40:55.940Z,11.00
2018-07-19T01:43:24.157Z,10.63
2018-07-19T01:46:00.237Z,11.13
2018-07-19T01:48:28.725Z,11.03
2018-07-19T01:50:56.548Z,12.10
2018-07-19T01:53:25.290Z,11.13
2018-07-19T01:55:54.282Z,11.50
2018-07-19T01:58:23.371Z,11.17
2018-07-19T02:00:55.908Z,11.80
2018-07-19T02:03:26.401Z,10.77
2018-07-19T02:05:56.593Z,10.30
2018-07-19T02:08:27.738Z,10.73
2018-07-19T02:10:58.623Z,10.83
2018-07-19T02:13:35.628Z,10.83
2018-07-19T02:16:06.194Z,11.80
2018-07-19T02:18:39.022Z,11.37
2018-07-19T02:21:10.126Z,10.70
2018-07-19T02:23:42.425Z,11.00
2018-07-19T02:26:15.038Z,10.80
2018-07-19T02:28:46.557Z,10.57
2018-07-19T02:31:15.751Z,10.40
2018-07-19T02:33:47.192Z,11.97
2018-07-19T02:36:17.084Z,10.47
2018-07-19T02:38:49.789Z,11.10
2018-07-19T02:41:21.211Z,10.53
2018-07-19T02:43:52.485Z,10.60
2018-07-19T02:46:23.745Z,10.40
2018-07-19T02:49:02.044Z,11.17
2018-07-19T02:51:32.027Z,10.37
2018-07-19T02:54:02.668Z,11.40
2018-07-19T02:56:35.924Z,11.17
2018-07-19T02:59:08.678Z,11.97
2018-07-19T03:01:39.429Z,10.60
2018-07-19T03:04:08.672Z,11.00
2018-07-19T03:06:41.655Z,11.50
2018-07-19T03:09:13.156Z,10.53
2018-07-19T03:11:52.222Z,10.73
2018-07-19T03:14:24.413Z,11.47
2018-07-19T03:16:56.227Z,10.53
2018-07-19T03:19:32.436Z,10.93
2018-07-19T03:22:06.166Z,11.00
2018-07-19T03:24:37.827Z,11.60
2018-07-19T03:27:10.274Z,10.93
2018-07-19T03:29:41.289Z,10.83
2018-07-19T03:32:12.258Z,9.83
2018-07-19T03:34:42.871Z,10.00
2018-07-19T03:37:13.341Z,10.47
2018-07-19T03:39:48.515Z,10.70
2018-07-19T03:42:25.565Z,10.07
2018-07-19T03:44:58.348Z,11.10
2018-07-19T03:47:30.695Z,10.40
2018-07-19T03:50:04.178Z,9.90
2018-07-19T03:52:35.988Z,10.23
2018-07-19T03:55:08.430Z,10.53
2018-07-19T03:57:44.624Z,11.03
2018-07-19T04:00:14.767Z,10.53
2018-07-19T04:02:48.013Z,11.50
2018-07-19T04:05:21.017Z,8.50
2018-07-19T04:07:51.895Z,11.20
2018-07-19T04:10:23.780Z,11.40
2018-07-19T04:12:53.055Z,10.80
2018-07-19T04:15:26.934Z,8.63
2018-07-19T04:17:57.968Z,9.30
2018-07-19T04:20:31.654Z,9.50
2018-07-19T04:23:04.314Z,10.20
2018-07-19T04:25:35.242Z,9.60
2018-07-19T04:28:08.919Z,9.63
2018-07-19T04:30:42.303Z,9.30
2018-07-19T04:33:14.785Z,9.80
2018-07-19T04:35:45.243Z,8.57
2018-07-19T04:38:17.802Z,9.10
2018-07-19T04:40:49.413Z,8.60
2018-07-19T04:43:21.205Z,8.93
2018-07-19T04:45:52.158Z,9.60
2018-07-19T04:48:24.295Z,9.70
2018-07-19T04:50:54.923Z,8.90
2018-07-19T04:53:27.340Z,9.23
2018-07-19T04:55:58.356Z,8.93
2018-07-19T04:58:32.735Z,8.73
2018-07-19T05:01:03.789Z,8.10
2018-07-19T05:03:34.726Z,8.20
2018-07-19T05:06:08.012Z,7.57
2018-07-19T05:08:42.475Z,7.60
2018-07-19T05:11:11.525Z,7.73
2018-07-19T05:13:42.252Z,6.67
2018-07-19T05:16:11.356Z,7.60
2018-07-19T05:18:42.027Z,7.97
2018-07-19T05:21:12.063Z,7.33
2018-07-19T05:23:40.758Z,5.70
2018-07-19T05:26:10.905Z,6.27
2018-07-19T05:28:39.886Z,6.80
2018-07-19T05:31:08.283Z,6.20
2018-07-19T05:33:37.561Z,7.03
2018-07-19T05:36:06.192Z,5.00
2018-07-19T05:38:34.399Z,5.10
2018-07-19T05:41:03.858Z,5.90
2018-07-19T05:43:31.979Z,6.17
2018-07-19T05:46:00.825Z,5.27
2018-07-19T05:48:29.363Z,5.33
2018-07-19T05:50:57.930Z,4.27
2018-07-19T05:53:28.956Z,4.87
2018-07-19T05:55:57.776Z,5.47
2018-07-19T05:58:26.181Z,4.80
2018-07-19T06:00:56.142Z,4.90
2018-07-19T06:03:24.912Z,4.70
2018-07-19T06:05:53.797Z,4.87
2018-07-19T06:08:22.460Z,5.37
2018-07-19T06:10:50.325Z,5.00
2018-07-19T06:13:18.646Z,5.97
2018-07-19T06:15:46.823Z,4.17
2018-07-19T06:18:16.275Z,5.50
2018-07-19T06:20:44.151Z,5.23
2018-07-19T06:23:12.283Z,5.17
2018-07-19T06:25:41.399Z,5.30
2018-07-19T06:28:09.918Z,5.00
2018-07-19T06:30:38.539Z,5.77
2018-07-19T06:33:06.591Z,5.30
2018-07-19T06:35:34.455Z,4.83
2018-07-19T06:38:02.416Z,5.70
2018-07-19T06:40:30.464Z,5.30
2018-07-19T06:42:58.328Z,5.27
2018-07-19T06:45:27.843Z,5.27
2018-07-19T06:47:55.756Z,6.17
2018-07-19T06:50:24.143Z,5.93
2018-07-19T06:52:52.914Z,5.80
2018-07-19T06:55:21.173Z,6.07
2018-07-19T06:57:49.075Z,5.37
2018-07-19T07:00:17.843Z,6.37
2018-07-19T07:02:45.608Z,5.97
2018-07-19T07:05:13.312Z,5.50
2018-07-19T07:07:41.450Z,6.40
2018-07-19T07:10:10.100Z,6.50
2018-07-19T07:12:38.686Z,5.93
2018-07-19T07:15:07.925Z,6.70
2018-07-19T07:17:35.748Z,6.03
2018-07-19T07:20:04.005Z,5.70
2018-07-19T07:22:32.180Z,7.37
2018-07-19T07:25:00.035Z,6.67
2018-07-19T07:27:28.506Z,6.10
2018-07-19T07:29:57.383Z,7.40
2018-07-19T07:32:25.273Z,7.63
2018-07-19T07:34:53.125Z,6.97
2018-07-19T07:37:21.894Z,7.83
2018-07-19T07:39:49.766Z,7.13
2018-07-19T07:42:17.617Z,6.43
2018-07-19T07:44:46.329Z,6.50
2018-07-19T07:47:14.193Z,6.90
2018-07-19T07:49:42.041Z,6.10
2018-07-19T07:52:10.324Z,7.13
2018-07-19T07:54:38.127Z,7.53
2018-07-19T07:57:06.802Z,6.50
2018-07-19T07:59:34.899Z,6.90
2018-07-19T08:02:02.810Z,6.33
2018-07-19T08:04:30.538Z,7.20
2018-07-19T08:06:58.622Z,6.03
2018-07-19T08:09:26.462Z,6.60
2018-07-19T08:11:55.134Z,6.90
2018-07-19T08:14:23.182Z,6.10
2018-07-19T08:16:51.711Z,6.73
2018-07-19T08:19:19.566Z,5.60
2018-07-19T08:21:47.929Z,6.90
2018-07-19T08:24:15.898Z,6.87
2018-07-19T08:26:43.764Z,5.83
2018-07-19T08:29:12.530Z,5.90
2018-07-19T08:31:40.368Z,6.00
2018-07-19T08:34:08.217Z,6.30
2018-07-19T08:36:36.376Z,6.10
2018-07-19T08:39:07.596Z,6.67
2018-07-19T08:41:35.438Z,6.03
2018-07-19T08:44:03.617Z,6.30
2018-07-19T08:46:31.347Z,5.47
2018-07-19T08:48:59.784Z,5.37
2018-07-19T08:51:28.242Z,5.90
2018-07-19T08:53:56.709Z,6.60
2018-07-19T08:56:24.596Z,6.20
2018-07-19T08:58:53.089Z,6.80
2018-07-19T09:01:20.988Z,6.50
2018-07-19T09:03:48.883Z,6.50
2018-07-19T09:06:17.200Z,6.47
2018-07-19T09:08:46.192Z,5.50
2018-07-19T09:11:13.889Z,4.97
2018-07-19T09:13:42.034Z,5.50
2018-07-19T09:16:09.897Z,5.50
2018-07-19T09:18:37.927Z,5.50
2018-07-19T09:21:06.238Z,5.70
2018-07-19T09:23:33.952Z,5.57
2018-07-19T09:26:01.816Z,5.20
2018-07-19T09:28:30.051Z,5.33
2018-07-19T09:30:58.535Z,5.43
2018-07-19T09:33:26.388Z,4.90
2018-07-19T09:35:54.426Z,5.13
2018-07-19T09:38:22.471Z,5.30
2018-07-19T09:40:50.144Z,6.10
2018-07-19T09:43:18.580Z,5.00
2018-07-19T09:45:46.405Z,6.10
2018-07-19T09:48:14.241Z,5.50
2018-07-19T09:50:42.702Z,5.33
2018-07-19T09:53:10.964Z,5.20
2018-07-19T09:55:38.687Z,6.10
2018-07-19T09:58:06.809Z,6.00
2018-07-19T10:00:41.430Z,5.30
2018-07-19T10:03:09.390Z,5.33
2018-07-19T10:05:37.264Z,4.60
2018-07-19T10:08:05.118Z,4.47
2018-07-19T10:10:33.118Z,5.13
2018-07-19T10:13:05.381Z,5.10
2018-07-19T10:15:34.179Z,5.20
2018-07-19T10:18:02.397Z,5.40
2018-07-19T10:20:30.271Z,4.80
2018-07-19T10:22:58.383Z,4.80
2018-07-19T10:25:26.072Z,4.50
2018-07-19T10:27:54.573Z,4.43
2018-07-19T10:30:23.518Z,5.13
2018-07-19T10:32:51.345Z,5.30
2018-07-19T10:35:19.180Z,5.47
2018-07-19T10:37:47.263Z,5.13
2018-07-19T10:40:15.086Z,6.80
2018-07-19T10:42:42.925Z,4.50
2018-07-19T10:45:11.836Z,4.63
2018-07-19T10:47:39.541Z,5.07
2018-07-19T10:50:08.022Z,4.60
2018-07-19T10:52:36.066Z,5.00
2018-07-19T10:55:03.758Z,5.47
2018-07-19T10:57:31.649Z,5.50
2018-07-19T10:59:59.712Z,5.30
2018-07-19T11:02:27.531Z,5.30
2018-07-19T11:04:56.014Z,4.73
2018-07-19T11:07:23.980Z,5.33
2018-07-19T11:09:51.821Z,6.03
2018-07-19T11:12:20.236Z,3.90
2018-07-19T11:14:48.391Z,4.60
2018-07-19T11:17:16.333Z,5.53
2018-07-19T11:19:44.170Z,4.60
2018-07-19T11:22:12.304Z,5.00
2018-07-19T11:24:40.119Z,5.47
2018-07-19T11:27:08.058Z,5.47
2018-07-19T11:29:36.315Z,4.10
2018-07-19T11:32:04.169Z,5.27
2018-07-19T11:34:32.924Z,4.60
2018-07-19T11:37:00.908Z,4.47
2018-07-19T11:39:29.045Z,4.27
2018-07-19T11:41:56.974Z,4.43
2018-07-19T11:44:25.355Z,5.30
2018-07-19T11:46:53.172Z,4.37
2018-07-19T11:49:21.002Z,4.90
2018-07-19T11:51:48.868Z,4.50
2018-07-19T11:54:16.575Z,4.90
2018-07-19T11:56:44.398Z,4.33
2018-07-19T11:59:12.788Z,4.10
2018-07-19T12:01:40.628Z,4.40
2018-07-19T12:04:08.435Z,4.40
2018-07-19T12:06:36.478Z,4.83
2018-07-19T12:09:06.183Z,4.13
2018-07-19T12:11:33.961Z,4.17
2018-07-19T12:14:01.995Z,5.10
2018-07-19T12:16:29.815Z,4.17
2018-07-19T12:18:57.827Z,4.77
2018-07-19T12:21:25.898Z,3.87
2018-07-19T12:23:54.417Z,3.83
2018-07-19T12:26:22.111Z,4.03
2018-07-19T12:28:50.241Z,4.63
2018-07-19T12:31:18.127Z,4.23
2018-07-19T12:33:46.253Z,4.30
2018-07-19T12:36:14.252Z,4.50
2018-07-19T12:38:42.070Z,3.77
2018-07-19T12:41:10.512Z,4.13
2018-07-19T12:43:38.386Z,3.70
2018-07-19T12:46:06.073Z,4.03
2018-07-19T12:48:34.573Z,4.10
2018-07-19T12:51:02.800Z,3.97
2018-07-19T12:53:30.998Z,4.30
2018-07-19T12:55:58.778Z,3.73
2018-07-19T12:58:27.000Z,4.20
2018-07-19T13:00:54.823Z,3.87
2018-07-19T13:03:23.219Z,3.70
2018-07-19T13:05:51.298Z,3.70
2018-07-19T13:08:19.981Z,3.47
2018-07-19T13:10:47.805Z,3.57
2018-07-19T13:13:15.877Z,3.60
2018-07-19T13:15:44.280Z,3.47
2018-07-19T13:18:12.097Z,4.07
2018-07-19T13:20:40.269Z,3.93
2018-07-19T13:23:08.084Z,4.03
2018-07-19T13:25:36.589Z,3.70
2018-07-19T13:28:04.785Z,3.90
2018-07-19T13:30:32.673Z,3.80
2018-07-19T13:33:00.353Z,3.80
2018-07-19T13:35:28.364Z,3.20
2018-07-19T13:37:56.219Z,3.30
2018-07-19T13:40:24.031Z,3.40
2018-07-19T13:42:51.995Z,3.80
2018-07-19T13:45:20.528Z,3.90
2018-07-19T13:47:48.379Z,3.40
2018-07-19T13:50:16.515Z,3.50
2018-07-19T13:52:55.769Z,3.87
2018-07-19T13:55:24.436Z,3.63
2018-07-19T13:57:52.261Z,3.30
2018-07-19T14:00:20.115Z,3.83
2018-07-19T14:02:48.360Z,3.70
2018-07-19T14:05:16.221Z,3.10
2018-07-19T14:07:44.606Z,4.33
2018-07-19T14:10:12.657Z,3.73
2018-07-19T14:12:41.083Z,3.23
2018-07-19T14:15:08.943Z,3.53
2018-07-19T14:17:36.982Z,3.67
2018-07-19T14:20:04.883Z,3.73
2018-07-19T14:22:32.732Z,3.80
2018-07-19T14:25:00.663Z,3.70
2018-07-19T14:27:29.143Z,3.10
2018-07-19T14:29:57.095Z,3.00
2018-07-19T14:32:25.144Z,3.50
2018-07-19T14:34:52.939Z,3.50
2018-07-19T14:37:21.704Z,3.53
2018-07-19T14:39:49.822Z,3.07
2018-07-19T14:42:17.689Z,3.13
2018-07-19T14:44:45.508Z,3.30
2018-07-19T14:47:13.532Z,3.23
2018-07-19T14:49:42.019Z,3.63
2018-07-19T14:52:09.885Z,3.43
2018-07-19T14:54:37.994Z,3.60
2018-07-19T14:57:06.110Z,3.97
2018-07-19T14:59:34.031Z,3.87
2018-07-19T15:02:02.071Z,3.67
2018-07-19T15:04:29.766Z,3.27
2018-07-19T15:06:57.580Z,2.90
2018-07-19T15:09:25.678Z,3.60
2018-07-19T15:11:53.380Z,2.87
2018-07-19T15:14:21.294Z,2.97
2018-07-19T15:16:50.144Z,3.40
2018-07-19T15:19:18.519Z,3.60
2018-07-19T15:21:47.264Z,4.70
2018-07-19T15:24:15.326Z,3.73
2018-07-19T15:26:43.167Z,3.60
2018-07-19T15:29:11.645Z,3.57
2018-07-19T15:31:39.756Z,2.93
2018-07-19T15:34:09.312Z,3.37
2018-07-19T15:36:37.957Z,3.27
2018-07-19T15:39:06.821Z,3.50
2018-07-19T15:41:34.693Z,3.70
2018-07-19T15:44:02.557Z,3.03
2018-07-19T15:46:31.658Z,4.57
2018-07-19T15:48:59.342Z,3.70
2018-07-19T15:51:27.015Z,3.40
2018-07-19T15:53:55.054Z,3.10
2018-07-19T15:56:23.796Z,3.40
2018-07-19T15:58:51.643Z,3.70
2018-07-19T16:01:20.220Z,3.90
2018-07-19T16:03:47.890Z,3.57
2018-07-19T16:06:15.796Z,2.97
2018-07-19T16:08:43.796Z,3.77
2018-07-19T16:11:12.376Z,3.80
2018-07-19T16:13:40.038Z,3.67
2018-07-19T16:16:07.882Z,4.27
2018-07-19T16:18:35.980Z,3.50
2018-07-19T16:21:03.806Z,3.80
2018-07-19T16:23:31.657Z,2.87
2018-07-19T16:25:59.699Z,3.00
2018-07-19T16:28:27.355Z,3.30
2018-07-19T16:30:55.168Z,3.57
2018-07-19T16:33:23.290Z,3.37
2018-07-19T16:35:51.399Z,4.20
2018-07-19T16:38:19.196Z,3.10
2018-07-19T16:40:47.778Z,3.87
2018-07-19T16:43:16.262Z,3.57
2018-07-19T16:45:44.757Z,3.40
2018-07-19T16:48:12.834Z,3.13
2018-07-19T16:50:41.126Z,3.17
2018-07-19T16:53:09.579Z,3.80
2018-07-19T16:55:38.254Z,3.57
2018-07-19T16:58:06.547Z,3.40
2018-07-19T17:00:34.350Z,3.80
2018-07-19T17:03:02.300Z,3.70
2018-07-19T17:05:30.121Z,3.77
2018-07-19T17:07:59.143Z,3.87
2018-07-19T17:10:27.141Z,3.17
2018-07-19T17:12:55.653Z,3.83
2018-07-19T17:15:23.493Z,3.57
2018-07-19T17:17:51.861Z,3.40
2018-07-19T17:20:19.695Z,3.57
2018-07-19T17:22:47.580Z,4.10
2018-07-19T17:25:15.668Z,3.20
2018-07-19T17:27:43.487Z,3.80
2018-07-19T17:30:11.875Z,3.87
2018-07-19T17:32:39.983Z,3.83
2018-07-19T17:35:08.525Z,3.13
2018-07-19T17:37:36.959Z,3.50
2018-07-19T17:40:05.012Z,3.33
2018-07-19T17:42:32.871Z,3.20
2018-07-19T17:45:01.846Z,4.00
2018-07-19T17:47:30.001Z,3.70
2018-07-19T17:49:58.455Z,3.50
2018-07-19T17:52:26.287Z,3.60
2018-07-19T17:54:54.358Z,3.93
2018-07-19T17:57:22.220Z,4.73
2018-07-19T17:59:50.043Z,4.23
2018-07-19T18:02:18.066Z,4.07
2018-07-19T18:04:45.863Z,3.47
2018-07-19T18:07:14.233Z,3.77
2018-07-19T18:09:42.190Z,4.23
2018-07-19T18:12:10.447Z,3.97
2018-07-19T18:14:39.018Z,4.23
2018-07-19T18:17:07.337Z,4.50
2018-07-19T18:19:35.046Z,4.33
2018-07-19T18:22:03.487Z,4.47
2018-07-19T18:24:32.267Z,4.87
2018-07-19T18:27:00.408Z,4.43
2018-07-19T18:29:28.232Z,3.90
2018-07-19T18:31:57.024Z,3.80
2018-07-19T18:34:24.866Z,4.10
2018-07-19T18:36:52.549Z,4.10
2018-07-19T18:39:20.840Z,4.10
2018-07-19T18:41:48.672Z,6.53
2018-07-19T18:44:16.602Z,6.53
2018-07-19T18:46:45.240Z,5.23
2018-07-19T18:49:13.067Z,6.50
2018-07-19T18:51:40.921Z,4.57
2018-07-19T18:54:09.028Z,4.53
2018-07-19T18:56:37.350Z,4.80
2018-07-19T18:59:05.721Z,5.07
2018-07-19T19:01:35.304Z,4.17
2018-07-19T19:04:03.726Z,4.77
2018-07-19T19:06:33.554Z,4.10
2018-07-19T19:09:01.650Z,4.53
2018-07-19T19:11:29.465Z,4.30
2018-07-19T19:13:57.936Z,4.43
2018-07-19T19:16:26.777Z,3.93
2018-07-19T19:18:54.580Z,4.80
2018-07-19T19:21:22.940Z,4.87
2018-07-19T19:23:51.010Z,5.37
2018-07-19T19:26:19.158Z,4.47
2018-07-19T19:28:47.812Z,4.80
2018-07-19T19:31:16.445Z,4.70
2018-07-19T19:33:44.443Z,4.43
2018-07-19T19:36:13.293Z,4.90
2018-07-19T19:38:41.489Z,4.77
2018-07-19T19:41:09.249Z,4.80
2018-07-19T19:43:37.100Z,5.77
2018-07-19T19:46:05.298Z,5.97
2018-07-19T19:48:36.004Z,6.17
2018-07-19T19:51:06.356Z,6.13
2018-07-19T19:53:34.163Z,5.43
2018-07-19T19:56:02.451Z,5.60
2018-07-19T19:58:30.520Z,4.70
2018-07-19T20:00:58.600Z,5.57
2018-07-19T20:03:26.787Z,4.80
2018-07-19T20:05:56.012Z,5.57
2018-07-19T20:08:23.717Z,5.97
2018-07-19T20:10:51.558Z,5.40
2018-07-19T20:13:19.557Z,5.30
2018-07-19T20:15:47.432Z,6.73
2018-07-19T20:18:15.888Z,5.50
2018-07-19T20:20:44.149Z,5.77
2018-07-19T20:23:11.959Z,5.90
2018-07-19T20:25:39.803Z,6.17
2018-07-19T20:28:07.977Z,6.20
2018-07-19T20:30:36.406Z,5.73
2018-07-19T20:33:04.256Z,6.43
2018-07-19T20:35:32.871Z,6.57
2018-07-19T20:38:00.672Z,6.80
2018-07-19T20:40:28.555Z,7.23
2018-07-19T20:42:56.715Z,7.20
2018-07-19T20:45:25.598Z,7.70
2018-07-19T20:47:53.398Z,6.37
2018-07-19T20:50:22.224Z,7.63
2018-07-19T20:52:51.245Z,8.37
2018-07-19T20:55:20.139Z,7.73
2018-07-19T20:57:48.994Z,8.13
2018-07-19T21:00:18.197Z,7.40
2018-07-19T21:02:46.975Z,8.10
2018-07-19T21:05:15.776Z,6.87
2018-07-19T21:07:43.600Z,7.70
2018-07-19T21:10:11.478Z,6.87
2018-07-19T21:12:39.628Z,8.20
2018-07-19T21:15:08.196Z,8.40
2018-07-19T21:17:36.045Z,6.97
2018-07-19T21:20:05.006Z,8.00
2018-07-19T21:22:33.508Z,7.17
2018-07-19T21:25:01.205Z,7.80
2018-07-19T21:27:29.243Z,7.77
2018-07-19T21:29:58.736Z,9.27
2018-07-19T21:32:27.120Z,9.37
2018-07-19T21:34:55.907Z,9.13
2018-07-19T21:37:24.359Z,9.37
2018-07-19T21:39:52.170Z,8.67
2018-07-19T21:42:20.124Z,9.47
2018-07-19T21:44:47.818Z,9.10
2018-07-19T21:47:15.632Z,8.47
2018-07-19T21:49:44.273Z,9.20
2018-07-19T21:52:12.523Z,9.53
2018-07-19T21:54:41.014Z,10.43
2018-07-19T21:57:09.635Z,9.50
2018-07-19T21:59:38.064Z,8.73
2018-07-19T22:02:05.812Z,9.03
2018-07-19T22:04:34.522Z,8.80
2018-07-19T22:07:02.925Z,8.20
2018-07-19T22:09:30.838Z,9.53
2018-07-19T22:11:59.100Z,9.40
2018-07-19T22:14:27.722Z,9.10
2018-07-19T22:16:56.229Z,8.47
2018-07-19T22:19:24.381Z,9.50
2018-07-19T22:21:52.108Z,9.30
2018-07-19T22:24:19.908Z,9.67
2018-07-19T22:26:48.077Z,9.73
2018-07-19T22:29:16.528Z,8.80
2018-07-19T22:31:44.881Z,10.77
2018-07-19T22:34:12.917Z,10.93
2018-07-19T22:36:40.631Z,9.80
2018-07-19T22:39:10.149Z,10.90
2018-07-19T22:41:38.453Z,11.67
2018-07-19T22:44:06.182Z,12.20
2018-07-19T22:46:34.071Z,13.90
2018-07-19T22:49:02.128Z,10.83
2018-07-19T22:51:30.609Z,11.43
2018-07-19T22:53:58.747Z,12.77
2018-07-19T22:56:26.970Z,12.60
2018-07-19T22:58:55.302Z,10.90
2018-07-19T23:01:23.834Z,12.43
2018-07-19T23:03:52.034Z,12.63
2018-07-19T23:06:19.867Z,11.73
2018-07-19T23:08:49.005Z,13.90
2018-07-19T23:11:17.161Z,12.33
2018-07-19T23:13:45.611Z,12.23
2018-07-19T23:16:13.515Z,12.87
2018-07-19T23:18:42.308Z,10.83
2018-07-19T23:21:10.209Z,12.10
2018-07-19T23:23:38.064Z,13.13
2018-07-19T23:26:06.107Z,13.53
2018-07-19T23:28:34.027Z,11.67
2018-07-19T23:31:02.111Z,12.00
2018-07-19T23:33:30.316Z,11.90
2018-07-19T23:36:01.185Z,11.90
2018-07-19T23:38:35.018Z,11.47
2018-07-19T23:41:05.736Z,12.80
2018-07-19T23:43:37.855Z,10.57
2018-07-19T23:46:12.230Z,11.13
2018-07-19T23:48:42.297Z,13.77
2018-07-19T23:51:10.345Z,11.90
2018-07-19T23:53:38.288Z,13.00
2018-07-19T23:56:07.328Z,12.30
2018-07-19T23:58:35.178Z,14.07
